Terminal Aerodrome Forecast
Issued by NWS

Home | Current Version | Previous Version | Text Only | Print | Product List | Glossary On
Versions: 1 2 3 4 5 6 7 8 9 10 11 12 13 14 15 16 17
909
FTUS46 KHNX 071346 AAA
TAFMER
TAF AMD
KMER 071346Z 0714/0812 12003KT 4SM BR SKC
      TEMPO 0714/0717 1SM BR
     FM071900 VRB03KT 5SM HZ SKC
     FM072100 VRB03KT P6SM SKC
     FM080500 00000KT 4SM BR SKC
      TEMPO 0805/0808 2SM BR
     FM080800 00000KT 1SM BR SKC
      TEMPO 0808/0812 1/4SM FG VV002=

USA.gov is the U.S. government's official web portal to all federal, state and local government web resources and services.